sensor_id;sensor_type;location;lat;lon;timestamp;P1;durP1;ratioP1;P2;durP2;ratioP2
45564;SDS011;31280;40.408;17.282;2022-12-18T00:00:46;10.10;;;3.97;;
45564;SDS011;31280;40.408;17.282;2022-12-18T00:03:15;7.18;;;4.20;;
45564;SDS011;31280;40.408;17.282;2022-12-18T00:05:48;9.30;;;4.28;;
45564;SDS011;31280;40.408;17.282;2022-12-18T00:08:14;9.20;;;3.83;;
45564;SDS011;31280;40.408;17.282;2022-12-18T00:10:41;6.45;;;3.35;;
45564;SDS011;31280;40.408;17.282;2022-12-18T00:13:08;6.93;;;3.60;;
45564;SDS011;31280;40.408;17.282;2022-12-18T00:15:34;7.65;;;3.88;;
45564;SDS011;31280;40.408;17.282;2022-12-18T00:18:00;6.82;;;3.95;;
45564;SDS011;31280;40.408;17.282;2022-12-18T00:20:26;14.93;;;4.65;;
45564;SDS011;31280;40.408;17.282;2022-12-18T00:22:52;9.43;;;4.70;;
45564;SDS011;31280;40.408;17.282;2022-12-18T00:25:18;10.25;;;4.93;;
45564;SDS011;31280;40.408;17.282;2022-12-18T00:27:44;14.77;;;4.60;;
45564;SDS011;31280;40.408;17.282;2022-12-18T00:30:10;10.18;;;4.57;;
45564;SDS011;31280;40.408;17.282;2022-12-18T00:32:36;17.75;;;5.95;;
45564;SDS011;31280;40.408;17.282;2022-12-18T00:35:03;12.65;;;5.45;;
45564;SDS011;31280;40.408;17.282;2022-12-18T00:37:29;8.57;;;4.55;;
45564;SDS011;31280;40.408;17.282;2022-12-18T00:39:55;13.02;;;5.18;;
45564;SDS011;31280;40.408;17.282;2022-12-18T00:42:20;11.65;;;5.60;;
45564;SDS011;31280;40.408;17.282;2022-12-18T00:45:05;14.82;;;4.28;;
45564;SDS011;31280;40.408;17.282;2022-12-18T00:47:31;9.27;;;4.72;;
45564;SDS011;31280;40.408;17.282;2022-12-18T00:49:56;9.07;;;3.90;;
45564;SDS011;31280;40.408;17.282;2022-12-18T00:52:22;10.63;;;4.00;;
45564;SDS011;31280;40.408;17.282;2022-12-18T00:54:49;8.10;;;3.88;;
45564;SDS011;31280;40.408;17.282;2022-12-18T00:57:14;6.65;;;3.60;;
45564;SDS011;31280;40.408;17.282;2022-12-18T00:59:40;5.70;;;3.50;;
45564;SDS011;31280;40.408;17.282;2022-12-18T01:02:05;7.93;;;3.78;;
45564;SDS011;31280;40.408;17.282;2022-12-18T01:04:31;12.23;;;4.13;;
45564;SDS011;31280;40.408;17.282;2022-12-18T01:06:57;7.32;;;3.67;;
45564;SDS011;31280;40.408;17.282;2022-12-18T01:09:23;9.27;;;4.05;;
45564;SDS011;31280;40.408;17.282;2022-12-18T01:11:49;7.65;;;3.88;;
45564;SDS011;31280;40.408;17.282;2022-12-18T01:14:15;11.50;;;4.03;;
45564;SDS011;31280;40.408;17.282;2022-12-18T01:16:40;9.88;;;3.95;;
45564;SDS011;31280;40.408;17.282;2022-12-18T01:19:06;8.10;;;3.88;;
45564;SDS011;31280;40.408;17.282;2022-12-18T01:21:34;7.85;;;3.75;;
45564;SDS011;31280;40.408;17.282;2022-12-18T01:23:59;8.27;;;3.60;;
45564;SDS011;31280;40.408;17.282;2022-12-18T01:26:25;7.53;;;3.88;;
45564;SDS011;31280;40.408;17.282;2022-12-18T01:28:55;9.32;;;3.97;;
45564;SDS011;31280;40.408;17.282;2022-12-18T01:31:29;11.05;;;3.35;;
45564;SDS011;31280;40.408;17.282;2022-12-18T01:33:57;7.60;;;3.20;;
45564;SDS011;31280;40.408;17.282;2022-12-18T01:36:26;6.80;;;3.33;;
45564;SDS011;31280;40.408;17.282;2022-12-18T01:38:54;9.70;;;3.88;;
45564;SDS011;31280;40.408;17.282;2022-12-18T01:41:22;9.68;;;3.95;;
45564;SDS011;31280;40.408;17.282;2022-12-18T01:46:20;6.15;;;3.20;;
45564;SDS011;31280;40.408;17.282;2022-12-18T01:48:48;7.47;;;3.55;;
45564;SDS011;31280;40.408;17.282;2022-12-18T01:51:17;9.98;;;3.90;;
45564;SDS011;31280;40.408;17.282;2022-12-18T01:53:43;9.88;;;3.47;;
45564;SDS011;31280;40.408;17.282;2022-12-18T01:56:15;5.05;;;3.60;;
45564;SDS011;31280;40.408;17.282;2022-12-18T02:01:11;7.57;;;3.33;;
45564;SDS011;31280;40.408;17.282;2022-12-18T02:03:36;8.90;;;3.40;;
45564;SDS011;31280;40.408;17.282;2022-12-18T02:06:07;6.22;;;3.42;;
45564;SDS011;31280;40.408;17.282;2022-12-18T02:17:13;10.15;;;3.75;;
45564;SDS011;31280;40.408;17.282;2022-12-18T02:20:05;8.32;;;3.78;;
45564;SDS011;31280;40.408;17.282;2022-12-18T02:22:53;6.80;;;3.63;;
45564;SDS011;31280;40.408;17.282;2022-12-18T02:25:44;11.05;;;3.80;;
45564;SDS011;31280;40.408;17.282;2022-12-18T02:28:20;13.93;;;4.00;;
45564;SDS011;31280;40.408;17.282;2022-12-18T02:30:51;8.35;;;3.65;;
45564;SDS011;31280;40.408;17.282;2022-12-18T02:33:21;10.35;;;3.78;;
45564;SDS011;31280;40.408;17.282;2022-12-18T02:35:48;18.13;;;4.00;;
45564;SDS011;31280;40.408;17.282;2022-12-18T02:38:17;5.40;;;3.33;;
45564;SDS011;31280;40.408;17.282;2022-12-18T02:40:43;8.88;;;3.30;;
45564;SDS011;31280;40.408;17.282;2022-12-18T02:43:10;10.27;;;3.58;;
45564;SDS011;31280;40.408;17.282;2022-12-18T02:45:54;7.50;;;3.13;;
45564;SDS011;31280;40.408;17.282;2022-12-18T02:48:31;6.28;;;3.00;;
45564;SDS011;31280;40.408;17.282;2022-12-18T02:51:08;5.97;;;2.90;;
45564;SDS011;31280;40.408;17.282;2022-12-18T02:53:46;4.03;;;2.33;;
45564;SDS011;31280;40.408;17.282;2022-12-18T03:01:43;6.03;;;2.17;;
45564;SDS011;31280;40.408;17.282;2022-12-18T03:04:14;3.08;;;2.30;;
45564;SDS011;31280;40.408;17.282;2022-12-18T03:06:50;6.72;;;2.42;;
45564;SDS011;31280;40.408;17.282;2022-12-18T03:09:25;2.65;;;2.20;;
45564;SDS011;31280;40.408;17.282;2022-12-18T03:11:56;5.70;;;2.20;;
45564;SDS011;31280;40.408;17.282;2022-12-18T03:14:48;4.68;;;2.15;;
45564;SDS011;31280;40.408;17.282;2022-12-18T03:17:35;5.85;;;2.00;;
45564;SDS011;31280;40.408;17.282;2022-12-18T03:20:09;4.22;;;2.33;;
45564;SDS011;31280;40.408;17.282;2022-12-18T03:22:38;5.50;;;2.20;;
45564;SDS011;31280;40.408;17.282;2022-12-18T03:25:05;5.97;;;2.03;;
45564;SDS011;31280;40.408;17.282;2022-12-18T03:27:34;4.97;;;1.80;;
45564;SDS011;31280;40.408;17.282;2022-12-18T03:30:04;3.55;;;1.67;;
45564;SDS011;31280;40.408;17.282;2022-12-18T03:32:39;4.22;;;2.17;;
45564;SDS011;31280;40.408;17.282;2022-12-18T03:35:08;4.15;;;1.65;;
45564;SDS011;31280;40.408;17.282;2022-12-18T03:37:38;2.58;;;1.85;;
45564;SDS011;31280;40.408;17.282;2022-12-18T03:40:04;3.38;;;1.60;;
45564;SDS011;31280;40.408;17.282;2022-12-18T03:42:48;7.03;;;1.67;;
45564;SDS011;31280;40.408;17.282;2022-12-18T03:45:32;3.75;;;1.95;;
45564;SDS011;31280;40.408;17.282;2022-12-18T03:53:12;4.45;;;1.40;;
45564;SDS011;31280;40.408;17.282;2022-12-18T03:55:40;3.40;;;1.40;;
45564;SDS011;31280;40.408;17.282;2022-12-18T03:58:11;4.82;;;1.70;;
45564;SDS011;31280;40.408;17.282;2022-12-18T04:00:42;3.45;;;1.50;;
45564;SDS011;31280;40.408;17.282;2022-12-18T04:03:09;4.25;;;1.58;;
45564;SDS011;31280;40.408;17.282;2022-12-18T04:05:36;5.15;;;1.40;;
45564;SDS011;31280;40.408;17.282;2022-12-18T04:08:02;6.93;;;1.60;;
45564;SDS011;31280;40.408;17.282;2022-12-18T04:10:29;2.17;;;1.50;;
45564;SDS011;31280;40.408;17.282;2022-12-18T04:12:56;3.05;;;1.60;;
45564;SDS011;31280;40.408;17.282;2022-12-18T04:15:22;4.07;;;1.50;;
45564;SDS011;31280;40.408;17.282;2022-12-18T04:17:49;3.13;;;1.20;;
45564;SDS011;31280;40.408;17.282;2022-12-18T04:20:15;2.88;;;1.65;;
45564;SDS011;31280;40.408;17.282;2022-12-18T04:22:41;4.60;;;1.20;;
45564;SDS011;31280;40.408;17.282;2022-12-18T04:25:07;5.15;;;1.58;;
45564;SDS011;31280;40.408;17.282;2022-12-18T04:27:33;2.88;;;1.38;;
45564;SDS011;31280;40.408;17.282;2022-12-18T04:29:59;4.05;;;2.00;;
45564;SDS011;31280;40.408;17.282;2022-12-18T04:32:25;1.67;;;1.13;;
45564;SDS011;31280;40.408;17.282;2022-12-18T04:34:51;2.13;;;1.30;;
45564;SDS011;31280;40.408;17.282;2022-12-18T04:37:17;2.88;;;1.20;;
45564;SDS011;31280;40.408;17.282;2022-12-18T04:39:42;3.83;;;1.48;;
45564;SDS011;31280;40.408;17.282;2022-12-18T04:42:08;2.00;;;1.20;;
45564;SDS011;31280;40.408;17.282;2022-12-18T04:44:34;2.58;;;1.30;;
45564;SDS011;31280;40.408;17.282;2022-12-18T04:46:59;2.85;;;1.60;;
45564;SDS011;31280;40.408;17.282;2022-12-18T04:49:25;2.85;;;1.30;;
45564;SDS011;31280;40.408;17.282;2022-12-18T04:51:51;4.07;;;1.50;;
45564;SDS011;31280;40.408;17.282;2022-12-18T04:54:16;5.20;;;1.30;;
45564;SDS011;31280;40.408;17.282;2022-12-18T04:56:42;2.75;;;1.48;;
45564;SDS011;31280;40.408;17.282;2022-12-18T04:59:08;2.17;;;1.55;;
45564;SDS011;31280;40.408;17.282;2022-12-18T05:01:33;2.58;;;1.38;;
45564;SDS011;31280;40.408;17.282;2022-12-18T05:03:59;5.35;;;1.55;;
45564;SDS011;31280;40.408;17.282;2022-12-18T05:06:25;3.72;;;1.65;;
45564;SDS011;31280;40.408;17.282;2022-12-18T05:08:51;2.42;;;1.48;;
45564;SDS011;31280;40.408;17.282;2022-12-18T05:11:17;1.60;;;1.13;;
45564;SDS011;31280;40.408;17.282;2022-12-18T05:13:44;3.08;;;1.40;;
45564;SDS011;31280;40.408;17.282;2022-12-18T05:16:10;3.00;;;1.33;;
45564;SDS011;31280;40.408;17.282;2022-12-18T05:18:36;3.45;;;1.73;;
45564;SDS011;31280;40.408;17.282;2022-12-18T05:21:02;4.07;;;1.75;;
45564;SDS011;31280;40.408;17.282;2022-12-18T05:23:29;2.45;;;1.45;;
45564;SDS011;31280;40.408;17.282;2022-12-18T05:25:59;2.80;;;1.50;;
45564;SDS011;31280;40.408;17.282;2022-12-18T05:28:27;6.57;;;1.50;;
45564;SDS011;31280;40.408;17.282;2022-12-18T05:30:55;5.80;;;1.98;;
45564;SDS011;31280;40.408;17.282;2022-12-18T05:33:23;2.63;;;1.45;;
45564;SDS011;31280;40.408;17.282;2022-12-18T05:35:54;4.18;;;1.63;;
45564;SDS011;31280;40.408;17.282;2022-12-18T05:38:21;4.55;;;1.50;;
45564;SDS011;31280;40.408;17.282;2022-12-18T05:40:48;3.97;;;1.70;;
45564;SDS011;31280;40.408;17.282;2022-12-18T05:43:15;3.30;;;1.60;;
45564;SDS011;31280;40.408;17.282;2022-12-18T05:45:41;5.55;;;2.00;;
45564;SDS011;31280;40.408;17.282;2022-12-18T05:48:07;3.92;;;1.70;;
45564;SDS011;31280;40.408;17.282;2022-12-18T05:50:34;5.40;;;1.92;;
45564;SDS011;31280;40.408;17.282;2022-12-18T05:53:01;3.35;;;1.95;;
45564;SDS011;31280;40.408;17.282;2022-12-18T05:55:28;7.47;;;2.13;;
45564;SDS011;31280;40.408;17.282;2022-12-18T05:57:54;6.63;;;2.00;;
45564;SDS011;31280;40.408;17.282;2022-12-18T06:00:20;7.55;;;2.08;;
45564;SDS011;31280;40.408;17.282;2022-12-18T06:02:48;4.28;;;1.90;;
45564;SDS011;31280;40.408;17.282;2022-12-18T06:05:14;4.90;;;1.95;;
45564;SDS011;31280;40.408;17.282;2022-12-18T06:07:40;4.40;;;1.65;;
45564;SDS011;31280;40.408;17.282;2022-12-18T06:10:06;4.05;;;1.70;;
45564;SDS011;31280;40.408;17.282;2022-12-18T06:12:32;3.90;;;1.80;;
45564;SDS011;31280;40.408;17.282;2022-12-18T06:15:01;7.35;;;2.15;;
45564;SDS011;31280;40.408;17.282;2022-12-18T06:17:28;2.55;;;1.75;;
45564;SDS011;31280;40.408;17.282;2022-12-18T06:19:54;7.43;;;1.88;;
45564;SDS011;31280;40.408;17.282;2022-12-18T06:22:20;3.38;;;1.80;;
45564;SDS011;31280;40.408;17.282;2022-12-18T06:24:46;4.88;;;1.90;;
45564;SDS011;31280;40.408;17.282;2022-12-18T06:27:12;3.28;;;2.00;;
45564;SDS011;31280;40.408;17.282;2022-12-18T06:29:38;3.17;;;1.83;;
45564;SDS011;31280;40.408;17.282;2022-12-18T06:32:03;6.68;;;1.90;;
45564;SDS011;31280;40.408;17.282;2022-12-18T06:34:29;5.63;;;1.75;;
45564;SDS011;31280;40.408;17.282;2022-12-18T06:36:57;2.25;;;1.50;;
45564;SDS011;31280;40.408;17.282;2022-12-18T06:39:23;3.85;;;1.67;;
45564;SDS011;31280;40.408;17.282;2022-12-18T06:41:50;4.95;;;1.75;;
45564;SDS011;31280;40.408;17.282;2022-12-18T06:44:15;5.15;;;2.10;;
45564;SDS011;31280;40.408;17.282;2022-12-18T06:46:41;8.95;;;1.92;;
45564;SDS011;31280;40.408;17.282;2022-12-18T06:49:07;3.83;;;1.75;;
45564;SDS011;31280;40.408;17.282;2022-12-18T06:51:34;2.35;;;1.30;;
45564;SDS011;31280;40.408;17.282;2022-12-18T06:54:00;3.28;;;1.40;;
45564;SDS011;31280;40.408;17.282;2022-12-18T06:56:26;2.63;;;1.40;;
45564;SDS011;31280;40.408;17.282;2022-12-18T06:58:52;3.95;;;1.65;;
45564;SDS011;31280;40.408;17.282;2022-12-18T07:01:18;3.28;;;1.50;;
45564;SDS011;31280;40.408;17.282;2022-12-18T07:03:44;2.00;;;1.45;;
45564;SDS011;31280;40.408;17.282;2022-12-18T07:06:16;6.50;;;1.95;;
45564;SDS011;31280;40.408;17.282;2022-12-18T07:08:44;4.38;;;1.90;;
45564;SDS011;31280;40.408;17.282;2022-12-18T07:11:11;2.97;;;1.63;;
45564;SDS011;31280;40.408;17.282;2022-12-18T07:13:37;3.10;;;1.30;;
45564;SDS011;31280;40.408;17.282;2022-12-18T07:16:07;2.83;;;1.65;;
45564;SDS011;31280;40.408;17.282;2022-12-18T07:18:35;6.85;;;1.70;;
45564;SDS011;31280;40.408;17.282;2022-12-18T07:21:08;3.78;;;1.65;;
45564;SDS011;31280;40.408;17.282;2022-12-18T07:23:37;3.70;;;1.90;;
45564;SDS011;31280;40.408;17.282;2022-12-18T07:26:04;2.78;;;1.85;;
45564;SDS011;31280;40.408;17.282;2022-12-18T07:28:32;4.07;;;2.15;;
45564;SDS011;31280;40.408;17.282;2022-12-18T07:31:01;3.17;;;1.98;;
45564;SDS011;31280;40.408;17.282;2022-12-18T07:33:46;4.00;;;1.73;;
45564;SDS011;31280;40.408;17.282;2022-12-18T07:36:12;4.45;;;2.25;;
45564;SDS011;31280;40.408;17.282;2022-12-18T07:38:38;4.65;;;2.13;;
45564;SDS011;31280;40.408;17.282;2022-12-18T07:41:08;5.32;;;1.85;;
45564;SDS011;31280;40.408;17.282;2022-12-18T07:43:38;4.22;;;1.95;;
45564;SDS011;31280;40.408;17.282;2022-12-18T07:46:05;4.32;;;1.75;;
45564;SDS011;31280;40.408;17.282;2022-12-18T07:48:32;5.43;;;2.00;;
45564;SDS011;31280;40.408;17.282;2022-12-18T07:50:58;4.05;;;1.88;;
45564;SDS011;31280;40.408;17.282;2022-12-18T07:53:25;3.33;;;1.80;;
45564;SDS011;31280;40.408;17.282;2022-12-18T07:55:55;5.78;;;2.00;;
45564;SDS011;31280;40.408;17.282;2022-12-18T07:58:24;3.35;;;1.70;;
45564;SDS011;31280;40.408;17.282;2022-12-18T08:00:50;6.32;;;2.10;;
45564;SDS011;31280;40.408;17.282;2022-12-18T08:03:17;5.75;;;1.80;;
45564;SDS011;31280;40.408;17.282;2022-12-18T08:05:43;5.00;;;1.67;;
45564;SDS011;31280;40.408;17.282;2022-12-18T08:08:09;7.07;;;2.33;;
45564;SDS011;31280;40.408;17.282;2022-12-18T08:10:35;3.92;;;1.80;;
45564;SDS011;31280;40.408;17.282;2022-12-18T08:13:01;6.10;;;1.90;;
45564;SDS011;31280;40.408;17.282;2022-12-18T08:15:26;3.90;;;1.63;;
45564;SDS011;31280;40.408;17.282;2022-12-18T08:17:52;4.35;;;1.73;;
45564;SDS011;31280;40.408;17.282;2022-12-18T08:20:22;9.90;;;1.75;;
45564;SDS011;31280;40.408;17.282;2022-12-18T08:22:48;4.75;;;1.60;;
45564;SDS011;31280;40.408;17.282;2022-12-18T08:25:16;4.93;;;1.75;;
45564;SDS011;31280;40.408;17.282;2022-12-18T08:27:42;3.40;;;1.75;;
45564;SDS011;31280;40.408;17.282;2022-12-18T08:30:08;5.30;;;1.95;;
45564;SDS011;31280;40.408;17.282;2022-12-18T08:32:34;6.60;;;2.15;;
45564;SDS011;31280;40.408;17.282;2022-12-18T08:35:00;8.73;;;1.92;;
45564;SDS011;31280;40.408;17.282;2022-12-18T08:37:26;7.55;;;2.60;;
45564;SDS011;31280;40.408;17.282;2022-12-18T08:39:51;5.82;;;1.67;;
45564;SDS011;31280;40.408;17.282;2022-12-18T08:42:17;3.72;;;1.60;;
45564;SDS011;31280;40.408;17.282;2022-12-18T08:45:01;2.38;;;1.88;;
45564;SDS011;31280;40.408;17.282;2022-12-18T08:47:28;6.60;;;1.73;;
45564;SDS011;31280;40.408;17.282;2022-12-18T08:49:54;6.72;;;2.05;;
45564;SDS011;31280;40.408;17.282;2022-12-18T08:52:20;5.88;;;1.92;;
45564;SDS011;31280;40.408;17.282;2022-12-18T08:54:45;6.10;;;1.80;;
45564;SDS011;31280;40.408;17.282;2022-12-18T08:57:11;6.55;;;1.75;;
45564;SDS011;31280;40.408;17.282;2022-12-18T08:59:37;3.97;;;1.75;;
45564;SDS011;31280;40.408;17.282;2022-12-18T09:02:03;4.32;;;1.80;;
45564;SDS011;31280;40.408;17.282;2022-12-18T09:04:29;9.38;;;2.20;;
45564;SDS011;31280;40.408;17.282;2022-12-18T09:06:56;6.22;;;1.88;;
45564;SDS011;31280;40.408;17.282;2022-12-18T09:09:21;4.00;;;2.00;;
45564;SDS011;31280;40.408;17.282;2022-12-18T09:11:47;7.25;;;2.40;;
45564;SDS011;31280;40.408;17.282;2022-12-18T09:14:13;5.18;;;2.25;;
45564;SDS011;31280;40.408;17.282;2022-12-18T09:16:38;6.13;;;1.92;;
45564;SDS011;31280;40.408;17.282;2022-12-18T09:19:04;7.43;;;2.03;;
45564;SDS011;31280;40.408;17.282;2022-12-18T09:21:32;10.88;;;1.88;;
45564;SDS011;31280;40.408;17.282;2022-12-18T09:24:04;7.20;;;2.05;;
45564;SDS011;31280;40.408;17.282;2022-12-18T09:26:30;4.90;;;1.88;;
45564;SDS011;31280;40.408;17.282;2022-12-18T09:28:56;6.57;;;2.00;;
45564;SDS011;31280;40.408;17.282;2022-12-18T09:31:22;5.38;;;2.00;;
45564;SDS011;31280;40.408;17.282;2022-12-18T09:33:49;8.70;;;1.92;;
45564;SDS011;31280;40.408;17.282;2022-12-18T09:36:15;3.42;;;1.80;;
45564;SDS011;31280;40.408;17.282;2022-12-18T09:38:42;5.95;;;1.60;;
45564;SDS011;31280;40.408;17.282;2022-12-18T09:49:30;8.65;;;1.88;;
45564;SDS011;31280;40.408;17.282;2022-12-18T09:52:02;4.80;;;1.85;;
45564;SDS011;31280;40.408;17.282;2022-12-18T09:54:50;4.55;;;2.10;;
45564;SDS011;31280;40.408;17.282;2022-12-18T09:57:24;4.03;;;1.63;;
45564;SDS011;31280;40.408;17.282;2022-12-18T09:59:55;7.55;;;1.88;;
45564;SDS011;31280;40.408;17.282;2022-12-18T10:02:24;4.25;;;2.00;;
45564;SDS011;31280;40.408;17.282;2022-12-18T10:05:02;5.53;;;1.67;;
45564;SDS011;31280;40.408;17.282;2022-12-18T10:10:14;3.33;;;1.98;;
45564;SDS011;31280;40.408;17.282;2022-12-18T10:18:28;8.18;;;2.55;;
45564;SDS011;31280;40.408;17.282;2022-12-18T10:21:03;5.80;;;1.70;;
45564;SDS011;31280;40.408;17.282;2022-12-18T10:26:27;8.65;;;1.83;;
45564;SDS011;31280;40.408;17.282;2022-12-18T10:28:53;3.97;;;1.83;;
45564;SDS011;31280;40.408;17.282;2022-12-18T10:31:20;3.17;;;1.80;;
45564;SDS011;31280;40.408;17.282;2022-12-18T10:33:48;4.60;;;1.70;;
45564;SDS011;31280;40.408;17.282;2022-12-18T10:36:13;4.63;;;1.42;;
45564;SDS011;31280;40.408;17.282;2022-12-18T10:38:39;5.18;;;1.67;;
45564;SDS011;31280;40.408;17.282;2022-12-18T10:41:08;5.18;;;1.58;;
45564;SDS011;31280;40.408;17.282;2022-12-18T10:46:42;2.75;;;1.50;;
45564;SDS011;31280;40.408;17.282;2022-12-18T10:49:21;8.18;;;2.13;;
45564;SDS011;31280;40.408;17.282;2022-12-18T10:51:49;3.40;;;2.15;;
45564;SDS011;31280;40.408;17.282;2022-12-18T10:54:21;7.40;;;1.80;;
45564;SDS011;31280;40.408;17.282;2022-12-18T10:56:49;6.07;;;1.80;;
45564;SDS011;31280;40.408;17.282;2022-12-18T10:59:15;4.55;;;1.80;;
45564;SDS011;31280;40.408;17.282;2022-12-18T11:01:50;7.63;;;2.40;;
45564;SDS011;31280;40.408;17.282;2022-12-18T11:07:02;5.38;;;1.77;;
45564;SDS011;31280;40.408;17.282;2022-12-18T11:09:31;4.68;;;1.90;;
45564;SDS011;31280;40.408;17.282;2022-12-18T11:11:58;6.53;;;1.98;;
45564;SDS011;31280;40.408;17.282;2022-12-18T11:14:30;7.10;;;1.95;;
45564;SDS011;31280;40.408;17.282;2022-12-18T11:16:59;6.50;;;1.65;;
45564;SDS011;31280;40.408;17.282;2022-12-18T11:19:33;3.47;;;1.90;;
45564;SDS011;31280;40.408;17.282;2022-12-18T11:22:23;9.68;;;1.98;;
45564;SDS011;31280;40.408;17.282;2022-12-18T11:25:25;7.25;;;2.25;;
45564;SDS011;31280;40.408;17.282;2022-12-18T11:30:30;2.05;;;1.50;;
45564;SDS011;31280;40.408;17.282;2022-12-18T11:35:37;4.05;;;1.80;;
45564;SDS011;31280;40.408;17.282;2022-12-18T11:38:22;7.60;;;2.17;;
45564;SDS011;31280;40.408;17.282;2022-12-18T11:40:53;3.38;;;1.63;;
45564;SDS011;31280;40.408;17.282;2022-12-18T11:46:05;3.08;;;1.48;;
45564;SDS011;31280;40.408;17.282;2022-12-18T11:49:18;6.43;;;1.52;;
45564;SDS011;31280;40.408;17.282;2022-12-18T11:51:33;2.55;;;1.58;;
45564;SDS011;31280;40.408;17.282;2022-12-18T11:54:11;4.43;;;1.60;;
45564;SDS011;31280;40.408;17.282;2022-12-18T11:59:52;6.60;;;1.45;;
45564;SDS011;31280;40.408;17.282;2022-12-18T12:16:29;5.13;;;2.35;;
45564;SDS011;31280;40.408;17.282;2022-12-18T12:21:42;4.75;;;1.23;;
45564;SDS011;31280;40.408;17.282;2022-12-18T12:29:38;5.10;;;1.90;;
45564;SDS011;31280;40.408;17.282;2022-12-18T12:32:53;2.03;;;1.17;;
45564;SDS011;31280;40.408;17.282;2022-12-18T12:40:19;7.90;;;1.30;;
45564;SDS011;31280;40.408;17.282;2022-12-18T12:42:52;6.10;;;1.40;;
45564;SDS011;31280;40.408;17.282;2022-12-18T12:51:00;9.07;;;1.58;;
45564;SDS011;31280;40.408;17.282;2022-12-18T12:53:36;2.90;;;1.25;;
45564;SDS011;31280;40.408;17.282;2022-12-18T12:56:04;3.03;;;1.35;;
45564;SDS011;31280;40.408;17.282;2022-12-18T13:06:18;3.22;;;1.10;;
45564;SDS011;31280;40.408;17.282;2022-12-18T13:08:55;5.15;;;1.48;;
45564;SDS011;31280;40.408;17.282;2022-12-18T13:14:26;5.43;;;1.20;;
45564;SDS011;31280;40.408;17.282;2022-12-18T13:19:51;2.50;;;1.38;;
45564;SDS011;31280;40.408;17.282;2022-12-18T13:22:48;2.40;;;1.08;;
45564;SDS011;31280;40.408;17.282;2022-12-18T13:25:49;2.65;;;1.60;;
45564;SDS011;31280;40.408;17.282;2022-12-18T13:28:18;6.70;;;1.70;;
45564;SDS011;31280;40.408;17.282;2022-12-18T13:30:51;4.22;;;1.73;;
45564;SDS011;31280;40.408;17.282;2022-12-18T13:35:53;3.08;;;1.30;;
45564;SDS011;31280;40.408;17.282;2022-12-18T13:38:38;3.47;;;1.40;;
45564;SDS011;31280;40.408;17.282;2022-12-18T13:46:29;5.70;;;1.40;;
45564;SDS011;31280;40.408;17.282;2022-12-18T13:49:26;2.85;;;1.30;;
45564;SDS011;31280;40.408;17.282;2022-12-18T13:51:54;2.25;;;1.38;;
45564;SDS011;31280;40.408;17.282;2022-12-18T13:54:32;4.53;;;1.55;;
45564;SDS011;31280;40.408;17.282;2022-12-18T13:57:00;7.18;;;2.53;;
45564;SDS011;31280;40.408;17.282;2022-12-18T13:59:34;5.80;;;1.77;;
45564;SDS011;31280;40.408;17.282;2022-12-18T14:02:23;3.03;;;1.52;;
45564;SDS011;31280;40.408;17.282;2022-12-18T14:04:49;5.88;;;1.58;;
45564;SDS011;31280;40.408;17.282;2022-12-18T14:09:50;6.97;;;1.52;;
45564;SDS011;31280;40.408;17.282;2022-12-18T14:12:18;5.07;;;1.58;;
45564;SDS011;31280;40.408;17.282;2022-12-18T14:15:05;5.95;;;1.50;;
45564;SDS011;31280;40.408;17.282;2022-12-18T14:17:40;5.22;;;1.63;;
45564;SDS011;31280;40.408;17.282;2022-12-18T14:20:12;5.60;;;1.95;;
45564;SDS011;31280;40.408;17.282;2022-12-18T14:22:39;4.70;;;1.98;;
45564;SDS011;31280;40.408;17.282;2022-12-18T14:27:50;3.60;;;1.52;;
45564;SDS011;31280;40.408;17.282;2022-12-18T14:33:06;8.05;;;2.15;;
45564;SDS011;31280;40.408;17.282;2022-12-18T14:35:37;2.60;;;1.40;;
45564;SDS011;31280;40.408;17.282;2022-12-18T14:40:47;5.07;;;1.63;;
45564;SDS011;31280;40.408;17.282;2022-12-18T14:43:17;8.32;;;2.35;;
45564;SDS011;31280;40.408;17.282;2022-12-18T14:45:44;16.17;;;2.25;;
45564;SDS011;31280;40.408;17.282;2022-12-18T14:50:37;6.30;;;1.92;;
45564;SDS011;31280;40.408;17.282;2022-12-18T14:53:03;9.70;;;1.80;;
45564;SDS011;31280;40.408;17.282;2022-12-18T14:55:29;4.55;;;1.70;;
45564;SDS011;31280;40.408;17.282;2022-12-18T14:57:55;5.03;;;2.10;;
45564;SDS011;31280;40.408;17.282;2022-12-18T15:00:23;3.80;;;1.70;;
45564;SDS011;31280;40.408;17.282;2022-12-18T15:02:52;4.40;;;1.92;;
45564;SDS011;31280;40.408;17.282;2022-12-18T15:05:26;7.13;;;2.30;;
45564;SDS011;31280;40.408;17.282;2022-12-18T15:07:54;5.80;;;2.22;;
45564;SDS011;31280;40.408;17.282;2022-12-18T15:10:26;4.28;;;1.73;;
45564;SDS011;31280;40.408;17.282;2022-12-18T15:18:05;8.55;;;2.00;;
45564;SDS011;31280;40.408;17.282;2022-12-18T15:20:42;12.25;;;2.22;;
45564;SDS011;31280;40.408;17.282;2022-12-18T15:23:16;5.80;;;1.70;;
45564;SDS011;31280;40.408;17.282;2022-12-18T15:28:33;5.13;;;2.63;;
45564;SDS011;31280;40.408;17.282;2022-12-18T15:31:06;6.13;;;1.75;;
45564;SDS011;31280;40.408;17.282;2022-12-18T15:36:20;9.88;;;1.45;;
45564;SDS011;31280;40.408;17.282;2022-12-18T15:38:48;4.72;;;2.17;;
45564;SDS011;31280;40.408;17.282;2022-12-18T15:41:15;8.43;;;1.77;;
45564;SDS011;31280;40.408;17.282;2022-12-18T15:43:43;8.60;;;2.22;;
45564;SDS011;31280;40.408;17.282;2022-12-18T15:46:14;9.00;;;2.10;;
45564;SDS011;31280;40.408;17.282;2022-12-18T15:48:41;10.10;;;2.42;;
45564;SDS011;31280;40.408;17.282;2022-12-18T15:53:56;6.75;;;2.38;;
45564;SDS011;31280;40.408;17.282;2022-12-18T15:56:24;6.22;;;2.15;;
45564;SDS011;31280;40.408;17.282;2022-12-18T15:59:16;7.43;;;2.00;;
45564;SDS011;31280;40.408;17.282;2022-12-18T16:01:44;7.82;;;2.10;;
45564;SDS011;31280;40.408;17.282;2022-12-18T16:04:12;9.55;;;2.40;;
45564;SDS011;31280;40.408;17.282;2022-12-18T16:06:39;8.13;;;2.78;;
45564;SDS011;31280;40.408;17.282;2022-12-18T16:09:06;6.63;;;2.40;;
45564;SDS011;31280;40.408;17.282;2022-12-18T16:11:32;9.10;;;3.50;;
45564;SDS011;31280;40.408;17.282;2022-12-18T16:16:48;9.25;;;2.83;;
45564;SDS011;31280;40.408;17.282;2022-12-18T16:19:15;11.85;;;4.63;;
45564;SDS011;31280;40.408;17.282;2022-12-18T16:21:41;12.05;;;4.65;;
45564;SDS011;31280;40.408;17.282;2022-12-18T16:24:17;12.13;;;4.55;;
45564;SDS011;31280;40.408;17.282;2022-12-18T16:26:44;17.48;;;6.55;;
45564;SDS011;31280;40.408;17.282;2022-12-18T16:29:09;18.60;;;6.57;;
45564;SDS011;31280;40.408;17.282;2022-12-18T16:31:36;18.80;;;6.50;;
45564;SDS011;31280;40.408;17.282;2022-12-18T16:36:52;13.75;;;5.68;;
45564;SDS011;31280;40.408;17.282;2022-12-18T16:39:19;12.20;;;5.47;;
45564;SDS011;31280;40.408;17.282;2022-12-18T16:41:46;12.13;;;3.90;;
45564;SDS011;31280;40.408;17.282;2022-12-18T16:44:12;8.25;;;4.05;;
45564;SDS011;31280;40.408;17.282;2022-12-18T16:46:38;12.35;;;3.55;;
45564;SDS011;31280;40.408;17.282;2022-12-18T16:49:04;9.80;;;3.03;;
45564;SDS011;31280;40.408;17.282;2022-12-18T16:51:30;13.35;;;3.10;;
45564;SDS011;31280;40.408;17.282;2022-12-18T16:53:59;11.07;;;3.08;;
45564;SDS011;31280;40.408;17.282;2022-12-18T16:56:24;13.43;;;3.17;;
45564;SDS011;31280;40.408;17.282;2022-12-18T16:58:53;11.98;;;2.97;;
45564;SDS011;31280;40.408;17.282;2022-12-18T17:01:21;10.57;;;2.88;;
45564;SDS011;31280;40.408;17.282;2022-12-18T17:03:54;8.35;;;3.70;;
45564;SDS011;31280;40.408;17.282;2022-12-18T17:06:21;10.25;;;3.95;;
45564;SDS011;31280;40.408;17.282;2022-12-18T17:08:49;9.68;;;2.90;;
45564;SDS011;31280;40.408;17.282;2022-12-18T17:11:21;11.93;;;3.15;;
45564;SDS011;31280;40.408;17.282;2022-12-18T17:13:46;9.40;;;2.20;;